Time;durP1;ratioP1;P1;durP2;ratioP2;P2;SDS_P1;SDS_P2;PMS_P1;PMS_P2;Temp;Humidity;BMP_temperature;BMP_pressure;BME280_temperature;BME280_humidity;BME280_pressure;Samples;Min_cycle;Max_cycle;Signal;HPM_P1;HPM_P2
2021/10/31 00:00:46;;;;;;;7.03;5.80;;;22.20;55.30;;;;;;6204959;23;20139;-81
2021/10/31 00:03:14;;;;;;;6.13;4.87;;;22.20;55.40;;;;;;6178588;23;20885;-80
2021/10/31 00:05:40;;;;;;;5.97;4.97;;;22.10;55.30;;;;;;6204895;23;20156;-81
2021/10/31 00:08:05;;;;;;;8.13;5.70;;;22.10;55.40;;;;;;6205640;23;20366;-81
2021/10/31 00:10:31;;;;;;;6.20;5.13;;;22.10;55.30;;;;;;6180598;23;20155;-81
2021/10/31 00:12:57;;;;;;;5.77;5.23;;;22.10;55.30;;;;;;6180489;23;20182;-80
2021/10/31 00:15:23;;;;;;;6.07;5.40;;;22.10;55.40;;;;;;6205836;23;20391;-81
2021/10/31 00:17:49;;;;;;;7.90;5.37;;;22.10;55.40;;;;;;6205591;23;20186;-81
2021/10/31 00:20:15;;;;;;;6.60;5.50;;;22.10;55.40;;;;;;6205501;23;20491;-81
2021/10/31 00:22:44;;;;;;;6.60;5.10;;;22.10;55.40;;;;;;6206675;23;20275;-80
2021/10/31 00:25:10;;;;;;;6.93;5.50;;;22.10;55.40;;;;;;6180838;23;20151;-81
2021/10/31 00:27:40;;;;;;;7.47;5.53;;;22.10;55.40;;;;;;6206587;23;20435;-79
2021/10/31 00:30:06;;;;;;;6.80;5.23;;;22.10;55.40;;;;;;6205211;23;20417;-80
2021/10/31 00:32:33;;;;;;;7.10;5.80;;;22.10;55.40;;;;;;6205302;23;20391;-81
2021/10/31 00:35:00;;;;;;;6.40;5.17;;;22.10;55.40;;;;;;6205050;23;20387;-80
2021/10/31 00:37:26;;;;;;;7.83;4.90;;;22.10;55.40;;;;;;6205354;23;20419;-81
2021/10/31 00:43:14;;;;;;;5.83;4.87;;;22.10;55.40;;;;;;6206956;23;20263;-80
2021/10/31 00:45:41;;;;;;;7.30;5.47;;;22.10;55.50;;;;;;6204993;23;20386;-80
2021/10/31 00:48:07;;;;;;;7.00;5.60;;;22.10;55.50;;;;;;6207381;23;20352;-79
2021/10/31 00:50:35;;;;;;;7.30;5.37;;;22.10;55.50;;;;;;6207145;23;20375;-80
2021/10/31 00:53:02;;;;;;;5.33;4.83;;;22.10;55.50;;;;;;6205886;23;20171;-80
2021/10/31 00:55:30;;;;;;;9.20;5.67;;;22.10;55.50;;;;;;6205512;23;20383;-80
2021/10/31 00:57:59;;;;;;;7.00;5.40;;;22.10;55.50;;;;;;6206750;23;20741;-80
2021/10/31 01:00:30;;;;;;;10.50;5.50;;;22.10;55.50;;;;;;6204728;23;20453;-80
2021/10/31 01:02:56;;;;;;;7.17;5.10;;;22.10;55.50;;;;;;6180203;23;20384;-79
2021/10/31 01:05:33;;;;;;;5.33;4.73;;;22.10;55.50;;;;;;6206286;23;20398;-80
2021/10/31 01:08:00;;;;;;;6.23;4.80;;;22.10;55.50;;;;;;6206694;23;20155;-79
2021/10/31 01:10:44;;;;;;;6.30;5.17;;;22.10;55.50;;;;;;6204785;23;20394;-79
2021/10/31 01:13:28;;;;;;;6.37;5.23;;;22.10;55.50;;;;;;6206301;23;20387;-79
2021/10/31 01:15:54;;;;;;;5.83;5.00;;;22.10;55.50;;;;;;6179567;23;20387;-79
2021/10/31 01:18:39;;;;;;;6.40;5.10;;;22.10;55.60;;;;;;6179732;23;20422;-79
2021/10/31 01:21:23;;;;;;;8.07;6.00;;;22.10;55.60;;;;;;6206263;23;20131;-81
2021/10/31 01:24:24;;;;;;;7.00;4.93;;;22.10;55.60;;;;;;6205563;23;20378;-81
2021/10/31 01:27:16;;;;;;;8.40;5.67;;;22.10;55.60;;;;;;6206284;23;20381;-81
2021/10/31 01:30:23;;;;;;;8.17;5.50;;;22.10;55.70;;;;;;6206688;23;20352;-80
2021/10/31 01:32:58;;;;;;;6.30;5.07;;;22.00;55.60;;;;;;6191338;23;20378;-80
2021/10/31 01:35:42;;;;;;;5.73;4.80;;;22.00;55.60;;;;;;6205917;23;20825;-81
2021/10/31 01:38:29;;;;;;;6.43;5.00;;;22.00;55.60;;;;;;6204857;23;20482;-81
2021/10/31 01:41:26;;;;;;;7.07;5.03;;;22.00;55.60;;;;;;6204220;23;20363;-81
2021/10/31 01:44:16;;;;;;;6.10;4.70;;;22.00;55.60;;;;;;6205149;23;20379;-81
2021/10/31 01:46:48;;;;;;;5.80;4.13;;;22.00;56.20;;;;;;6205048;23;20403;-81
2021/10/31 01:49:43;;;;;;;7.30;5.00;;;22.00;55.70;;;;;;6204359;23;20371;-80
2021/10/31 01:52:15;;;;;;;6.73;3.73;;;22.00;55.70;;;;;;6149665;23;20775;-81
2021/10/31 01:54:51;;;;;;;6.40;5.00;;;22.00;55.70;;;;;;6205362;23;20343;-81
2021/10/31 01:57:21;;;;;;;5.27;4.77;;;22.00;55.70;;;;;;6204167;23;20415;-79
2021/10/31 01:59:55;;;;;;;7.30;5.63;;;22.00;55.70;;;;;;6204482;23;20355;-80
2021/10/31 02:02:24;;;;;;;8.50;5.73;;;22.00;55.70;;;;;;6205419;23;20423;-79
2021/10/31 02:04:50;;;;;;;8.43;5.27;;;22.00;55.70;;;;;;6179704;23;20383;-80
2021/10/31 02:07:19;;;;;;;7.13;5.23;;;22.00;55.70;;;;;;6180099;23;20368;-81
2021/10/31 02:09:46;;;;;;;6.27;5.10;;;22.00;55.70;;;;;;6203731;23;20393;-81
2021/10/31 02:12:16;;;;;;;5.57;4.70;;;22.00;55.70;;;;;;6204589;23;20398;-80
2021/10/31 02:14:44;;;;;;;5.83;4.33;;;22.00;55.70;;;;;;6179100;23;20465;-80
2021/10/31 02:17:10;;;;;;;5.63;4.87;;;22.00;55.70;;;;;;6205214;23;20422;-80
2021/10/31 02:19:44;;;;;;;8.30;5.30;;;22.00;55.70;;;;;;6205091;23;20371;-81
2021/10/31 02:22:23;;;;;;;6.07;4.90;;;22.00;55.60;;;;;;6204023;23;20379;-80
2021/10/31 02:24:52;;;;;;;6.10;4.57;;;22.00;55.70;;;;;;6205128;23;20351;-79
2021/10/31 02:27:23;;;;;;;5.20;4.67;;;22.00;55.70;;;;;;6179271;23;20394;-80
2021/10/31 02:29:50;;;;;;;5.80;4.83;;;22.00;56.20;;;;;;6204133;23;20378;-80
2021/10/31 02:32:17;;;;;;;5.63;4.80;;;22.00;55.70;;;;;;6204385;23;20387;-79
2021/10/31 02:34:43;;;;;;;5.10;4.60;;;22.00;55.70;;;;;;6204675;23;20429;-79
2021/10/31 02:37:09;;;;;;;5.60;4.83;;;22.00;56.20;;;;;;6204573;23;20759;-80
2021/10/31 02:39:35;;;;;;;6.27;4.87;;;22.00;55.70;;;;;;6205943;23;20367;-80
2021/10/31 02:42:05;;;;;;;5.90;4.70;;;22.00;55.70;;;;;;6203893;23;20379;-79
2021/10/31 02:44:32;;;;;;;5.80;4.50;;;22.00;55.70;;;;;;6206386;23;20371;-80
2021/10/31 02:47:02;;;;;;;6.53;4.50;;;22.00;55.70;;;;;;6204841;23;21025;-80
2021/10/31 02:49:32;;;;;;;5.43;4.70;;;22.00;55.70;;;;;;6204377;23;20389;-80
2021/10/31 02:52:01;;;;;;;5.90;4.60;;;22.00;55.70;;;;;;6205499;23;20406;-79
2021/10/31 02:54:36;;;;;;;7.03;5.57;;;22.00;55.70;;;;;;6204585;23;20706;-78
2021/10/31 02:57:13;;;;;;;4.63;4.20;;;22.00;55.70;;;;;;6207968;23;20429;-79
2021/10/31 02:59:50;;;;;;;5.73;4.47;;;22.00;55.70;;;;;;6204822;23;20367;-79
2021/10/31 03:02:16;;;;;;;5.33;4.53;;;22.00;55.70;;;;;;6204049;23;20434;-80
2021/10/31 03:04:44;;;;;;;5.50;4.50;;;22.00;55.70;;;;;;6179375;23;20455;-80
2021/10/31 03:07:10;;;;;;;4.93;4.53;;;22.00;55.70;;;;;;6155702;23;20394;-80
2021/10/31 03:09:36;;;;;;;5.30;4.20;;;22.00;55.70;;;;;;6204891;23;20460;-80
2021/10/31 03:12:09;;;;;;;4.97;4.40;;;22.00;55.60;;;;;;6204269;23;20386;-79
2021/10/31 03:14:36;;;;;;;5.33;4.83;;;22.00;55.60;;;;;;6204891;23;20414;-79
2021/10/31 03:17:03;;;;;;;5.13;4.47;;;22.00;55.70;;;;;;6203393;23;20429;-80
2021/10/31 03:19:29;;;;;;;5.90;4.43;;;22.00;55.70;;;;;;6203716;23;20444;-79
2021/10/31 03:21:55;;;;;;;5.33;4.83;;;22.00;56.00;;;;;;6205728;23;20402;-79
2021/10/31 03:24:21;;;;;;;4.40;3.97;;;22.00;55.60;;;;;;6203917;23;20152;-79
2021/10/31 03:26:50;;;;;;;6.10;4.80;;;22.00;55.60;;;;;;6203638;23;20152;-78
2021/10/31 03:32:43;;;;;;;5.10;4.20;;;22.00;55.60;;;;;;6205113;23;20366;-80
2021/10/31 03:35:08;;;;;;;4.97;4.40;;;21.90;55.60;;;;;;6203954;23;20386;-80
2021/10/31 03:37:34;;;;;;;4.77;4.23;;;21.90;55.60;;;;;;6206848;23;20415;-78
2021/10/31 03:40:06;;;;;;;4.90;4.30;;;21.90;55.60;;;;;;6183637;23;20151;-78
2021/10/31 03:42:32;;;;;;;5.10;4.47;;;22.00;55.70;;;;;;6209234;23;20198;-78
2021/10/31 03:44:58;;;;;;;5.03;3.87;;;21.90;55.60;;;;;;6210166;23;20367;-78
2021/10/31 03:47:26;;;;;;;5.13;4.63;;;21.90;55.60;;;;;;6209811;23;20171;-78
2021/10/31 03:56:38;;;;;;;5.10;4.43;;;21.90;55.60;;;;;;6119804;23;20500;-77
2021/10/31 03:59:04;;;;;;;6.13;4.30;;;21.90;55.70;;;;;;6119597;23;20385;-78
2021/10/31 04:01:32;;;;;;;5.70;5.00;;;21.90;55.70;;;;;;6120299;23;20361;-78
2021/10/31 04:03:59;;;;;;;7.27;5.37;;;21.90;55.70;;;;;;6120260;23;20381;-78
2021/10/31 04:06:46;;;;;;;4.87;4.30;;;21.90;55.70;;;;;;6119273;23;20377;-78
2021/10/31 04:09:14;;;;;;;5.00;4.10;;;21.90;55.70;;;;;;6095141;23;20382;-78
2021/10/31 04:11:46;;;;;;;4.97;4.33;;;21.90;55.70;;;;;;6095287;23;20402;-78
2021/10/31 04:14:15;;;;;;;4.53;3.90;;;21.90;55.70;;;;;;6072086;23;20393;-78
2021/10/31 04:16:41;;;;;;;4.47;3.77;;;21.90;55.70;;;;;;6119508;23;20438;-78
2021/10/31 04:19:07;;;;;;;4.03;3.63;;;21.90;55.70;;;;;;6119822;23;20382;-77
2021/10/31 04:21:34;;;;;;;6.03;4.43;;;21.90;55.70;;;;;;6119565;23;20378;-77
2021/10/31 04:24:00;;;;;;;5.53;4.30;;;21.90;55.70;;;;;;6212786;23;20414;-77
2021/10/31 04:26:29;;;;;;;4.50;3.90;;;21.90;55.70;;;;;;6208967;23;20379;-77
2021/10/31 04:32:19;;;;;;;5.23;4.43;;;21.90;55.60;;;;;;6209436;23;20411;-78
2021/10/31 04:34:45;;;;;;;5.07;4.30;;;21.90;55.70;;;;;;6208851;23;20382;-77
2021/10/31 04:37:55;;;;;;;4.23;3.80;;;21.90;56.20;;;;;;6208728;23;20437;-78
2021/10/31 04:43:48;;;;;;;5.03;4.10;;;21.90;55.70;;;;;;6209582;23;20367;-77
2021/10/31 04:46:15;;;;;;;7.10;4.40;;;21.80;55.70;;;;;;6183090;23;20395;-78
2021/10/31 04:48:51;;;;;;;5.23;4.67;;;21.80;55.70;;;;;;6204427;23;20355;-77
2021/10/31 04:51:17;;;;;;;4.30;3.80;;;21.90;55.70;;;;;;6207818;23;20409;-78
2021/10/31 04:53:51;;;;;;;3.90;3.50;;;21.80;55.70;;;;;;6209616;23;20371;-78
2021/10/31 04:56:17;;;;;;;5.90;5.33;;;21.90;55.70;;;;;;6210219;23;20738;-77
2021/10/31 04:58:43;;;;;;;4.47;3.90;;;21.90;55.70;;;;;;6208901;23;20427;-78
2021/10/31 05:01:08;;;;;;;4.67;4.20;;;21.90;55.70;;;;;;6209113;23;20470;-77
2021/10/31 05:03:36;;;;;;;3.40;3.17;;;21.90;55.70;;;;;;6183916;23;20379;-78
2021/10/31 05:06:04;;;;;;;5.03;3.90;;;21.90;55.70;;;;;;6211053;23;20152;-78
2021/10/31 05:08:30;;;;;;;4.80;4.30;;;21.90;55.70;;;;;;6209095;23;20438;-77
2021/10/31 05:10:59;;;;;;;5.33;4.00;;;21.90;55.70;;;;;;6184981;23;20386;-77
2021/10/31 05:13:31;;;;;;;4.37;3.40;;;21.90;55.70;;;;;;6210455;23;20351;-78
2021/10/31 05:16:00;;;;;;;4.67;4.07;;;21.90;56.20;;;;;;6210168;23;20423;-77
2021/10/31 05:18:26;;;;;;;4.43;3.80;;;21.90;55.70;;;;;;6183627;23;20422;-78
2021/10/31 05:20:52;;;;;;;5.13;3.90;;;21.80;55.60;;;;;;6210270;23;20378;-77
2021/10/31 05:23:18;;;;;;;5.20;4.10;;;21.90;55.70;;;;;;6208838;23;20376;-78
2021/10/31 05:25:44;;;;;;;5.77;4.00;;;21.90;55.70;;;;;;6160068;23;20395;-78
2021/10/31 05:28:12;;;;;;;4.60;4.00;;;21.90;55.60;;;;;;6210849;23;20387;-77
2021/10/31 05:30:38;;;;;;;3.90;3.50;;;21.90;55.70;;;;;;6209118;23;20152;-77
2021/10/31 05:36:32;;;;;;;4.23;3.83;;;21.90;55.60;;;;;;6210541;23;20435;-78
2021/10/31 05:39:05;;;;;;;4.27;3.83;;;21.80;55.50;;;;;;6209733;23;20462;-78
2021/10/31 05:41:36;;;;;;;5.17;4.43;;;21.90;55.60;;;;;;6209950;23;20351;-78
2021/10/31 05:44:03;;;;;;;4.00;3.50;;;21.90;55.60;;;;;;6210414;23;20411;-78
2021/10/31 05:46:31;;;;;;;4.63;3.57;;;21.90;55.60;;;;;;6209632;23;20386;-78
2021/10/31 05:48:57;;;;;;;5.43;4.20;;;21.90;55.60;;;;;;6183622;23;20211;-78
2021/10/31 05:51:29;;;;;;;4.50;3.30;;;21.90;55.50;;;;;;6184392;23;20383;-78
2021/10/31 05:53:55;;;;;;;5.07;3.90;;;21.90;55.50;;;;;;6209161;23;20487;-78
2021/10/31 05:56:21;;;;;;;3.97;3.50;;;21.90;55.50;;;;;;6209458;23;20377;-81
2021/10/31 05:58:47;;;;;;;5.30;3.90;;;21.90;55.50;;;;;;6209666;23;20171;-78
2021/10/31 06:01:13;;;;;;;4.00;3.23;;;21.90;55.50;;;;;;6207661;23;20152;-78
2021/10/31 06:03:43;;;;;;;4.80;3.87;;;22.00;55.50;;;;;;6208176;23;20171;-77
2021/10/31 06:06:10;;;;;;;3.93;3.50;;;22.00;55.50;;;;;;6182481;23;20387;-78
2021/10/31 06:08:37;;;;;;;4.07;3.60;;;22.00;55.50;;;;;;6183640;23;20387;-79
2021/10/31 06:11:08;;;;;;;3.87;3.53;;;22.00;55.40;;;;;;6208666;23;20375;-78
2021/10/31 06:13:36;;;;;;;3.67;3.27;;;22.00;55.40;;;;;;6208940;23;20351;-79
2021/10/31 06:16:06;;;;;;;4.80;3.60;;;22.00;55.40;;;;;;6206391;23;20403;-79
2021/10/31 06:19:10;;;;;;;3.67;3.20;;;22.00;55.40;;;;;;6182884;23;20427;-78
2021/10/31 06:21:36;;;;;;;5.23;3.97;;;22.10;55.40;;;;;;6209496;23;20363;-77
2021/10/31 06:24:02;;;;;;;5.03;3.53;;;22.00;55.40;;;;;;6207565;23;20466;-78
2021/10/31 06:26:27;;;;;;;6.17;3.80;;;22.00;55.40;;;;;;6208318;23;20376;-78
2021/10/31 06:28:53;;;;;;;4.20;3.80;;;22.00;55.40;;;;;;6182834;23;20156;-78
2021/10/31 06:31:22;;;;;;;4.07;3.70;;;22.10;55.40;;;;;;6208038;23;20155;-83
2021/10/31 06:33:50;;;;;;;4.33;3.40;;;22.10;55.40;;;;;;6207387;23;20163;-78
2021/10/31 06:36:15;;;;;;;5.50;3.47;;;22.10;55.40;;;;;;6207462;23;20980;-79
2021/10/31 06:38:41;;;;;;;4.73;3.60;;;22.10;55.30;;;;;;6183066;23;20423;-78
2021/10/31 06:41:09;;;;;;;4.07;3.50;;;22.10;55.30;;;;;;6183425;23;20151;-78
2021/10/31 06:43:36;;;;;;;4.67;3.53;;;22.10;55.30;;;;;;6208016;23;20171;-78
2021/10/31 06:46:02;;;;;;;4.57;3.83;;;22.10;55.30;;;;;;6208096;23;20405;-78
2021/10/31 06:48:28;;;;;;;5.60;3.83;;;22.10;55.30;;;;;;6208481;23;20379;-78
2021/10/31 06:50:56;;;;;;;7.67;3.60;;;22.10;55.30;;;;;;6209232;23;20372;-78
2021/10/31 06:53:22;;;;;;;4.03;3.67;;;22.10;55.30;;;;;;6183854;23;20394;-78
2021/10/31 06:55:48;;;;;;;5.43;3.80;;;22.10;55.30;;;;;;6183408;23;20454;-78
2021/10/31 06:58:14;;;;;;;6.10;3.37;;;22.10;55.40;;;;;;6208044;23;20482;-78
2021/10/31 07:00:40;;;;;;;4.87;3.60;;;22.10;55.40;;;;;;6183931;23;20406;-78
2021/10/31 07:03:06;;;;;;;3.53;3.23;;;22.10;55.40;;;;;;6209715;23;20432;-79
2021/10/31 07:05:32;;;;;;;3.63;3.30;;;22.10;55.30;;;;;;6209370;23;20140;-77
2021/10/31 07:08:01;;;;;;;4.57;3.57;;;22.10;55.40;;;;;;6207137;23;20383;-79
2021/10/31 07:13:49;;;;;;;4.60;3.80;;;22.10;55.30;;;;;;6208934;23;20350;-78
2021/10/31 07:16:15;;;;;;;4.67;3.33;;;22.10;55.30;;;;;;6186332;23;20366;-77
2021/10/31 07:18:41;;;;;;;5.13;4.10;;;22.10;55.30;;;;;;6212506;23;20210;-78
2021/10/31 07:21:07;;;;;;;12.90;4.33;;;22.10;55.30;;;;;;6212838;23;20150;-79
2021/10/31 07:23:33;;;;;;;7.03;3.70;;;22.10;55.30;;;;;;6213265;23;20358;-78
2021/10/31 07:26:00;;;;;;;5.90;3.20;;;22.10;55.30;;;;;;6212932;23;20143;-77
2021/10/31 07:28:26;;;;;;;4.87;3.63;;;22.10;55.30;;;;;;6211918;23;20366;-78
2021/10/31 07:30:55;;;;;;;6.13;3.50;;;22.10;55.30;;;;;;6212423;23;20422;-77
2021/10/31 07:33:24;;;;;;;4.57;3.90;;;22.10;55.30;;;;;;6212244;23;20175;-78
2021/10/31 07:35:50;;;;;;;5.60;3.60;;;22.10;55.30;;;;;;6212080;23;20375;-77
2021/10/31 07:38:16;;;;;;;4.60;3.90;;;22.10;55.20;;;;;;6211530;23;20423;-77
2021/10/31 07:40:44;;;;;;;4.13;3.70;;;22.10;55.30;;;;;;6212225;23;20382;-78
2021/10/31 07:43:11;;;;;;;5.97;3.50;;;22.10;55.80;;;;;;6211639;23;20407;-78
2021/10/31 07:45:38;;;;;;;4.67;3.50;;;22.20;55.30;;;;;;6187287;23;20390;-78
2021/10/31 07:48:05;;;;;;;5.27;3.73;;;22.20;55.30;;;;;;6185483;23;20394;-77
2021/10/31 07:50:34;;;;;;;5.57;5.00;;;22.10;55.30;;;;;;6211878;23;20382;-78
2021/10/31 07:53:11;;;;;;;5.10;3.37;;;22.10;55.30;;;;;;6213187;23;20415;-78
2021/10/31 07:55:47;;;;;;;5.00;3.60;;;22.20;55.40;;;;;;6213261;23;20356;-77
2021/10/31 07:58:17;;;;;;;7.27;3.47;;;22.10;55.30;;;;;;6211295;23;20418;-77
2021/10/31 08:00:43;;;;;;;5.93;3.60;;;22.10;55.30;;;;;;6211749;23;20375;-78
2021/10/31 08:03:09;;;;;;;5.03;3.30;;;22.10;55.30;;;;;;6211703;23;20387;-77
2021/10/31 08:05:34;;;;;;;4.70;3.27;;;22.10;55.30;;;;;;6211863;23;20167;-78
2021/10/31 08:08:00;;;;;;;7.13;3.50;;;22.10;55.30;;;;;;6211934;23;20423;-77
2021/10/31 08:10:26;;;;;;;4.57;4.13;;;22.10;55.30;;;;;;6181414;23;20180;-76
2021/10/31 08:12:52;;;;;;;5.77;3.60;;;22.10;55.30;;;;;;6153393;23;20383;-76
2021/10/31 08:15:18;;;;;;;3.37;2.87;;;22.10;55.30;;;;;;6176257;23;20392;-76
2021/10/31 08:17:45;;;;;;;4.83;3.37;;;22.20;55.40;;;;;;6176299;23;20430;-77
2021/10/31 08:20:11;;;;;;;4.97;3.70;;;22.10;55.30;;;;;;6151682;23;20152;-77
2021/10/31 08:22:37;;;;;;;5.77;3.87;;;22.10;55.30;;;;;;6176751;23;20412;-77
2021/10/31 08:25:06;;;;;;;4.13;3.30;;;22.20;55.30;;;;;;6177452;23;20396;-77
2021/10/31 08:27:36;;;;;;;4.20;2.90;;;22.20;55.30;;;;;;6177358;23;20364;-78
2021/10/31 08:30:03;;;;;;;4.43;3.50;;;22.20;55.30;;;;;;6175710;23;20396;-77
2021/10/31 08:32:38;;;;;;;4.23;3.03;;;22.20;55.30;;;;;;6151286;23;20700;-77
2021/10/31 08:35:04;;;;;;;8.97;3.27;;;22.20;55.30;;;;;;6175505;23;20431;-77
2021/10/31 08:37:30;;;;;;;4.40;3.53;;;22.20;55.30;;;;;;6181002;23;20747;-78
2021/10/31 08:39:59;;;;;;;4.40;4.00;;;22.20;55.20;;;;;;6182117;23;20372;-78
2021/10/31 08:42:28;;;;;;;5.13;3.03;;;22.20;55.20;;;;;;6182160;23;20208;-78
2021/10/31 08:45:07;;;;;;;;;;;;;;;;;;;;;
2021/10/31 08:47:33;;;;;;;4.60;3.50;;;22.20;55.10;;;;;;6182224;23;20395;-77
2021/10/31 08:50:00;;;;;;;3.03;2.73;;;22.20;55.10;;;;;;6181142;23;20452;-78
2021/10/31 08:53:10;;;;;;;3.80;3.40;;;22.20;55.10;;;;;;6157300;23;20396;-78
2021/10/31 08:55:40;;;;;;;5.17;3.50;;;22.30;55.10;;;;;;6181405;23;20367;-79
2021/10/31 08:58:10;;;;;;;4.10;3.63;;;22.20;55.10;;;;;;6156737;23;20424;-77
2021/10/31 09:00:42;;;;;;;4.33;3.50;;;22.20;55.10;;;;;;6176207;23;20380;-77
2021/10/31 09:03:08;;;;;;;9.70;4.30;;;22.30;55.20;;;;;;6176169;23;20392;-77
2021/10/31 09:08:56;;;;;;;5.47;3.87;;;22.30;55.10;;;;;;6179856;23;20336;-79
2021/10/31 09:11:23;;;;;;;4.03;3.60;;;22.20;55.10;;;;;;6180274;23;20392;-79
2021/10/31 09:13:53;;;;;;;5.10;4.17;;;22.20;55.10;;;;;;6180786;23;20496;-80
2021/10/31 09:16:19;;;;;;;4.90;4.10;;;22.20;55.10;;;;;;6180496;23;20368;-80
2021/10/31 09:18:49;;;;;;;4.10;3.70;;;22.30;55.10;;;;;;6181383;23;20503;-80
2021/10/31 09:21:18;;;;;;;4.37;3.80;;;22.30;55.10;;;;;;6181582;23;20395;-80
2021/10/31 09:23:44;;;;;;;5.37;4.87;;;22.30;55.10;;;;;;6180948;23;20360;-79
2021/10/31 09:26:10;;;;;;;4.93;4.00;;;22.30;55.00;;;;;;6181286;23;20386;-79
2021/10/31 09:28:36;;;;;;;4.40;3.70;;;22.30;55.00;;;;;;6180681;23;20372;-79
2021/10/31 09:31:02;;;;;;;7.43;4.47;;;22.30;55.00;;;;;;6179953;23;20160;-80
2021/10/31 09:33:29;;;;;;;7.03;4.93;;;22.30;55.00;;;;;;6156279;23;20384;-78
2021/10/31 09:35:58;;;;;;;7.00;4.30;;;22.30;55.00;;;;;;6180285;23;20372;-80
2021/10/31 09:38:26;;;;;;;8.97;4.30;;;22.30;55.00;;;;;;6155066;23;20424;-81
2021/10/31 09:40:53;;;;;;;5.30;4.73;;;22.30;55.00;;;;;;6181390;23;20368;-81
2021/10/31 09:43:24;;;;;;;5.13;4.43;;;22.30;55.00;;;;;;6179682;23;20444;-80
2021/10/31 09:45:50;;;;;;;7.00;4.40;;;22.30;54.90;;;;;;6181446;23;20360;-80
2021/10/31 09:48:17;;;;;;;7.80;5.23;;;22.30;55.00;;;;;;6156170;23;20407;-81
2021/10/31 09:50:51;;;;;;;4.87;4.00;;;22.30;55.00;;;;;;6182290;23;20172;-80
2021/10/31 09:53:20;;;;;;;3.90;3.53;;;22.30;55.00;;;;;;6180910;23;20981;-81
2021/10/31 09:55:47;;;;;;;4.80;4.40;;;22.20;54.90;;;;;;6180099;23;20399;-81
2021/10/31 09:58:22;;;;;;;6.03;4.50;;;22.20;54.90;;;;;;6155892;23;20463;-79
2021/10/31 10:01:00;;;;;;;5.40;3.80;;;22.30;55.00;;;;;;6181465;23;20368;-79
2021/10/31 10:03:35;;;;;;;6.20;4.47;;;22.30;55.00;;;;;;6180776;23;20403;-78
2021/10/31 10:06:21;;;;;;;5.27;3.77;;;22.30;55.00;;;;;;6181095;23;20368;-78
2021/10/31 10:09:26;;;;;;;6.93;4.23;;;22.20;54.90;;;;;;6181243;23;20435;-78
2021/10/31 10:11:53;;;;;;;6.10;5.50;;;22.30;55.00;;;;;;6039556;23;20399;-79
2021/10/31 10:14:30;;;;;;;4.30;3.30;;;22.20;54.90;;;;;;6154644;23;20368;-78
2021/10/31 10:17:03;;;;;;;5.47;4.07;;;22.30;55.00;;;;;;6180535;23;20362;-78
2021/10/31 10:19:32;;;;;;;6.20;3.60;;;22.20;54.90;;;;;;6180594;23;20428;-77
2021/10/31 10:22:14;;;;;;;4.40;3.50;;;22.30;55.00;;;;;;6180058;23;20380;-78
2021/10/31 10:24:55;;;;;;;5.10;3.23;;;22.30;55.00;;;;;;6180615;23;20364;-78
2021/10/31 10:27:30;;;;;;;5.00;3.40;;;22.30;55.00;;;;;;6181974;23;20387;-77
2021/10/31 10:29:56;;;;;;;4.60;3.63;;;22.30;55.00;;;;;;6180669;23;20366;-78
2021/10/31 10:32:25;;;;;;;6.17;3.43;;;22.30;55.00;;;;;;6181301;23;20696;-78
2021/10/31 10:34:56;;;;;;;4.63;3.70;;;22.30;55.00;;;;;;6180599;23;20391;-78
2021/10/31 10:37:28;;;;;;;4.30;3.50;;;22.30;55.00;;;;;;6180413;23;20467;-78
2021/10/31 10:39:57;;;;;;;5.17;4.10;;;22.30;55.00;;;;;;6181691;23;20375;-78
2021/10/31 10:42:27;;;;;;;6.27;3.43;;;22.30;55.00;;;;;;6182152;23;20372;-78
2021/10/31 10:45:02;;;;;;;5.73;3.80;;;22.30;55.00;;;;;;6180364;23;20384;-78
2021/10/31 10:47:29;;;;;;;4.30;3.10;;;22.30;55.00;;;;;;6181108;23;20403;-78
2021/10/31 10:49:56;;;;;;;5.53;3.80;;;22.30;55.00;;;;;;6179963;23;20392;-78
2021/10/31 10:52:31;;;;;;;5.07;3.60;;;22.30;55.00;;;;;;6180307;23;20372;-77
2021/10/31 10:55:12;;;;;;;6.23;4.27;;;22.30;55.00;;;;;;6180130;23;20440;-78
2021/10/31 10:57:44;;;;;;;4.87;4.00;;;22.30;55.00;;;;;;6180049;23;20404;-78
2021/10/31 11:00:18;;;;;;;8.23;3.97;;;22.30;55.00;;;;;;6181942;23;20363;-78
2021/10/31 11:02:45;;;;;;;5.30;3.07;;;22.30;55.00;;;;;;6155353;23;20369;-78
2021/10/31 11:05:13;;;;;;;5.10;3.97;;;22.30;55.00;;;;;;6180033;23;20392;-78
2021/10/31 11:07:42;;;;;;;4.67;3.50;;;22.30;55.00;;;;;;6181074;23;20376;-77
2021/10/31 11:10:20;;;;;;;4.97;3.90;;;22.30;55.00;;;;;;6180503;23;20387;-78
2021/10/31 11:13:04;;;;;;;3.60;3.30;;;22.30;55.00;;;;;;6180260;23;20379;-78
2021/10/31 11:15:35;;;;;;;3.43;3.13;;;22.30;55.00;;;;;;6178812;23;20403;-77
2021/10/31 11:18:03;;;;;;;3.90;3.37;;;22.30;55.10;;;;;;6175447;23;20458;-77
2021/10/31 11:20:35;;;;;;;5.03;3.50;;;22.30;55.00;;;;;;6150711;23;20376;-77
2021/10/31 11:23:09;;;;;;;4.90;3.50;;;22.30;55.00;;;;;;6149084;23;20382;-77
2021/10/31 11:25:41;;;;;;;3.87;3.20;;;22.30;55.10;;;;;;6175580;23;20371;-77
2021/10/31 11:28:12;;;;;;;5.40;4.00;;;22.30;55.10;;;;;;6150385;23;20411;-77
2021/10/31 11:30:40;;;;;;;4.07;3.50;;;22.30;55.00;;;;;;6150501;23;20415;-78
2021/10/31 11:33:09;;;;;;;6.40;3.60;;;22.30;55.10;;;;;;6173864;23;20403;-78
2021/10/31 11:35:40;;;;;;;4.13;3.23;;;22.30;55.10;;;;;;6175085;23;20387;-78
2021/10/31 11:38:19;;;;;;;4.97;3.70;;;22.30;55.10;;;;;;6175154;23;20462;-78
2021/10/31 11:40:50;;;;;;;4.60;3.73;;;22.30;55.10;;;;;;6150371;23;20387;-78
2021/10/31 11:43:47;;;;;;;3.50;3.20;;;22.30;55.10;;;;;;6175889;23;20440;-77
2021/10/31 11:46:14;;;;;;;3.43;3.13;;;22.30;55.00;;;;;;6061918;23;20406;-77
2021/10/31 11:48:57;;;;;;;3.83;2.90;;;22.30;55.10;;;;;;6061868;23;20451;-77
2021/10/31 11:51:41;;;;;;;4.93;2.50;;;22.30;55.00;;;;;;6086378;23;20410;-77
2021/10/31 11:54:07;;;;;;;3.90;3.50;;;22.30;55.00;;;;;;6086480;23;20378;-77
2021/10/31 11:56:42;;;;;;;3.30;3.00;;;22.30;55.10;;;;;;6086582;23;20430;-78
2021/10/31 11:59:10;;;;;;;5.23;3.57;;;22.30;55.10;;;;;;6063166;23;20185;-78
2021/10/31 12:01:39;;;;;;;3.63;2.73;;;22.30;55.00;;;;;;6065555;23;20414;-78
2021/10/31 12:04:10;;;;;;;6.50;3.17;;;22.30;55.10;;;;;;6088228;23;20382;-77
2021/10/31 12:07:31;;;;;;;3.77;3.20;;;22.30;55.00;;;;;;6089102;23;20411;-78
2021/10/31 12:13:24;;;;;;;4.63;3.30;;;22.30;55.10;;;;;;6082988;23;20421;-78
2021/10/31 12:19:59;;;;;;;5.60;3.10;;;22.30;55.10;;;;;;6087583;23;20414;-78
2021/10/31 12:26:21;;;;;;;3.20;2.83;;;22.30;55.20;;;;;;6115471;23;20362;-77
2021/10/31 12:29:39;;;;;;;4.93;3.60;;;22.30;55.20;;;;;;6146285;23;20453;-77
2021/10/31 12:39:33;;;;;;;3.43;2.83;;;22.30;55.20;;;;;;6116136;23;20432;-78
2021/10/31 12:49:12;;;;;;;4.80;3.53;;;22.20;55.20;;;;;;6059024;23;20394;-76
2021/10/31 12:51:50;;;;;;;3.10;2.80;;;22.20;55.20;;;;;;6059996;23;20383;-76
2021/10/31 12:54:23;;;;;;;3.70;3.20;;;22.20;55.20;;;;;;6055583;23;20387;-77
2021/10/31 13:00:04;;;;;;;4.37;3.07;;;22.30;55.20;;;;;;6049056;23;20381;-77
2021/10/31 13:02:51;;;;;;;3.43;3.10;;;22.30;55.20;;;;;;6092995;23;20409;-78
2021/10/31 13:05:48;;;;;;;4.17;2.80;;;22.30;55.20;;;;;;6116638;23;20386;-78
2021/10/31 13:08:24;;;;;;;3.60;3.03;;;22.30;55.20;;;;;;6117148;23;20374;-78
2021/10/31 13:11:07;;;;;;;3.83;3.03;;;22.30;55.20;;;;;;6092183;23;20449;-78
2021/10/31 13:13:42;;;;;;;3.60;2.77;;;22.30;55.20;;;;;;6115588;23;20389;-78
2021/10/31 13:16:12;;;;;;;3.90;3.20;;;22.30;55.20;;;;;;6116089;23;20382;-77
2021/10/31 13:18:44;;;;;;;4.13;2.70;;;22.30;55.20;;;;;;6092479;23;20524;-78
2021/10/31 13:21:33;;;;;;;3.87;3.07;;;22.30;55.20;;;;;;6136585;23;20375;-77
2021/10/31 13:24:05;;;;;;;4.23;3.00;;;22.30;55.10;;;;;;6178058;23;20423;-78
2021/10/31 13:26:36;;;;;;;3.70;2.77;;;22.30;55.20;;;;;;6175497;23;20396;-78
2021/10/31 13:29:05;;;;;;;3.93;3.20;;;22.30;55.20;;;;;;6127850;23;20379;-78
2021/10/31 13:31:40;;;;;;;3.00;2.30;;;22.30;55.10;;;;;;6177536;23;20440;-78
2021/10/31 13:34:10;;;;;;;3.43;2.90;;;22.30;55.10;;;;;;6175330;23;20371;-78
2021/10/31 13:36:55;;;;;;;3.53;2.90;;;22.30;55.10;;;;;;6177388;23;20758;-80
2021/10/31 13:43:01;;;;;;;3.87;2.87;;;22.40;55.20;;;;;;6176270;23;20468;-80
2021/10/31 13:49:17;;;;;;;4.50;3.57;;;22.30;55.20;;;;;;6181338;23;20465;-79
2021/10/31 13:55:07;;;;;;;3.60;2.90;;;22.30;55.20;;;;;;6106447;23;20390;-80
2021/10/31 13:57:48;;;;;;;3.47;2.63;;;22.30;55.20;;;;;;6178257;23;20430;-81
2021/10/31 14:00:44;;;;;;;4.00;2.70;;;22.30;55.20;;;;;;6180166;23;20386;-81
2021/10/31 14:03:39;;;;;;;4.13;2.83;;;22.30;55.20;;;;;;6179217;23;20705;-81
2021/10/31 14:06:10;;;;;;;3.77;3.20;;;22.30;55.20;;;;;;6180559;23;20416;-81
2021/10/31 14:09:10;;;;;;;3.60;2.73;;;22.30;55.20;;;;;;6180218;23;20375;-81
2021/10/31 14:11:59;;;;;;;3.30;2.43;;;22.30;55.20;;;;;;6181455;23;20379;-81
2021/10/31 14:14:46;;;;;;;3.13;2.70;;;22.30;55.20;;;;;;6173887;23;20408;-78
2021/10/31 14:17:23;;;;;;;4.20;2.63;;;22.30;55.20;;;;;;6174423;23;20419;-78
2021/10/31 14:19:52;;;;;;;3.43;2.97;;;22.30;55.20;;;;;;6175718;23;20426;-78